Time;durP1;ratioP1;P1;durP2;ratioP2;P2;SDS_P1;SDS_P2;PMS_P1;PMS_P2;Temp;Humidity;BMP_temperature;BMP_pressure;BME280_temperature;BME280_humidity;BME280_pressure;Samples;Min_cycle;Max_cycle;Signal;HPM_P1;HPM_P2
2021/10/11 07:19:30;;;;;;;;;16.75;14.50;;;;;18.24;60.65;102554.47;5055794;28;45894;-71
2021/10/11 07:21:55;;;;;;;;;20.25;20.25;;;;;18.43;60.32;102560.50;5042298;28;45437;-72
2021/10/11 07:24:21;;;;;;;;;20.50;18.00;;;;;18.62;59.86;102562.13;5043969;28;66041;-72
2021/10/11 07:26:46;;;;;;;;;16.75;16.50;;;;;18.82;60.44;102566.31;5015817;28;61339;-75
2021/10/11 07:29:11;;;;;;;;;22.50;19.50;;;;;19.08;60.11;102563.00;4990274;28;73091;-75
2021/10/11 07:31:37;;;;;;;;;16.00;14.25;;;;;19.30;60.09;102565.22;5013746;28;70260;-74
2021/10/11 07:34:02;;;;;;;;;21.50;19.50;;;;;19.56;58.94;102569.94;5004610;28;63806;-73
2021/10/11 07:36:27;;;;;;;;;16.50;14.25;;;;;19.72;58.05;102565.31;4987898;28;45398;-73
2021/10/11 07:38:53;;;;;;;;;18.25;16.50;;;;;19.96;58.45;102582.66;5007246;28;46109;-77
2021/10/11 07:41:19;;;;;;;;;17.75;17.25;;;;;20.12;57.77;102583.41;5012344;28;45466;-74
2021/10/11 07:43:44;;;;;;;;;14.50;14.25;;;;;20.26;57.77;102587.03;5018142;28;45715;-73
2021/10/11 07:46:10;;;;;;;;;18.50;18.50;;;;;20.39;57.53;102592.47;5013546;28;66379;-72
2021/10/11 07:48:35;;;;;;;;;19.00;18.00;;;;;20.50;57.40;102589.94;5011548;28;48613;-73
2021/10/11 07:51:00;;;;;;;;;17.50;16.75;;;;;20.57;57.14;102590.38;5018496;28;45477;-81
2021/10/11 07:53:26;;;;;;;;;20.33;14.67;;;;;20.71;57.13;102604.75;5006769;28;45519;-74
2021/10/11 07:55:51;;;;;;;;;13.67;13.67;;;;;20.83;56.71;102594.94;5009627;28;49374;-78
2021/10/11 07:58:17;;;;;;;;;13.33;13.33;;;;;20.93;56.66;102606.91;5000487;28;46976;-78
2021/10/11 08:00:42;;;;;;;;;14.67;11.67;;;;;20.88;56.16;102591.00;5005611;28;60502;-77
2021/10/11 08:03:08;;;;;;;;;13.33;13.00;;;;;21.06;56.30;102596.13;5003419;28;68744;-83
2021/10/11 08:05:33;;;;;;;;;16.00;13.67;;;;;21.12;55.80;102600.19;5002551;28;45610;-87
2021/10/11 08:07:59;;;;;;;;;15.67;14.00;;;;;21.17;55.72;102596.22;4999139;28;45575;-79
2021/10/11 08:10:24;;;;;;;;;17.00;14.00;;;;;21.23;55.96;102596.75;5003692;28;45492;-79
2021/10/11 08:12:49;;;;;;;;;16.00;16.00;;;;;21.27;55.59;102590.16;4998876;28;66420;-76
2021/10/11 08:15:17;;;;;;;;;16.33;13.00;;;;;21.30;55.90;102604.31;5001651;28;68557;-75
2021/10/11 08:17:42;;;;;;;;;11.00;11.00;;;;;21.32;55.46;102598.81;5010863;28;45508;-81
2021/10/11 08:20:08;;;;;;;;;12.33;12.00;;;;;21.38;55.73;102611.88;5003052;28;66685;-78
2021/10/11 08:22:34;;;;;;;;;14.00;14.00;;;;;21.40;55.26;102595.56;5022402;28;45428;-78
2021/10/11 08:25:00;;;;;;;;;12.00;10.67;;;;;21.46;55.61;102600.53;5021894;28;45513;-74
2021/10/11 08:27:25;;;;;;;;;13.00;11.00;;;;;21.50;55.55;102607.44;5026842;28;46272;-74
2021/10/11 08:29:53;;;;;;;;;11.67;11.67;;;;;21.46;54.37;102601.38;5016906;28;45448;-80
2021/10/11 08:32:23;;;;;;;;;12.33;10.33;;;;;21.52;53.51;102610.03;4989869;28;45567;-81
2021/10/11 08:34:50;;;;;;;;;10.33;10.33;;;;;21.49;52.70;102613.81;5012021;28;45457;-81
2021/10/11 08:37:15;;;;;;;;;11.00;10.33;;;;;21.39;52.54;102597.41;5007547;28;46099;-80
2021/10/11 08:39:41;;;;;;;;;11.00;11.00;;;;;21.42;52.90;102599.03;5008611;28;45740;-81
2021/10/11 08:42:07;;;;;;;;;14.33;11.67;;;;;21.40;53.02;102609.06;5008788;28;45994;-81
2021/10/11 08:44:32;;;;;;;;;9.33;9.33;;;;;21.37;52.74;102607.44;5013865;28;45408;-81
2021/10/11 08:46:59;;;;;;;;;7.00;7.00;;;;;21.41;53.63;102608.09;5020423;28;45923;-80
2021/10/11 08:49:24;;;;;;;;;11.00;11.00;;;;;21.49;52.82;102607.56;5018672;28;45403;-80
2021/10/11 08:51:50;;;;;;;;;10.33;10.00;;;;;21.56;52.68;102606.13;5028608;28;64254;-82
2021/10/11 08:54:15;;;;;;;;;13.33;11.33;;;;;21.61;52.99;102595.00;5014834;28;45403;-79
2021/10/11 08:56:40;;;;;;;;;17.67;12.67;;;;;21.68;52.96;102604.38;5019832;28;72902;-78
2021/10/11 08:59:06;;;;;;;;;13.00;10.67;;;;;21.68;52.78;102613.38;5015180;28;71520;-77
2021/10/11 09:01:32;;;;;;;;;9.67;9.00;;;;;21.68;52.97;102617.91;5015319;28;50420;-76
2021/10/11 09:04:02;;;;;;;;;12.33;8.33;;;;;21.72;53.52;102614.03;5008783;28;45400;-75
2021/10/11 09:06:27;;;;;;;;;11.67;10.33;;;;;21.76;52.79;102607.44;5018163;28;51359;-75
2021/10/11 09:08:52;;;;;;;;;13.00;13.00;;;;;21.76;53.49;102604.72;5007921;28;45691;-84
2021/10/11 09:11:18;;;;;;;;;7.67;7.67;;;;;21.81;53.06;102613.38;5012884;28;64089;-76
2021/10/11 09:13:53;;;;;;;;;12.67;11.67;;;;;21.79;53.39;102601.78;5008975;28;45419;-78
2021/10/11 09:16:40;;;;;;;;;14.67;11.00;;;;;21.94;53.27;102612.47;4999468;28;45418;-77
2021/10/11 09:19:17;;;;;;;;;14.33;9.67;;;;;21.92;52.28;102620.72;5008992;28;45624;-77
2021/10/11 09:21:43;;;;;;;;;10.00;10.00;;;;;21.82;51.76;102617.78;4987056;28;45397;-77
2021/10/11 09:24:13;;;;;;;;;10.00;9.33;;;;;21.72;51.03;102619.44;4990116;28;45433;-77
2021/10/11 09:26:49;;;;;;;;;9.00;7.00;;;;;21.53;51.07;102620.72;5004218;28;45691;-77
2021/10/11 09:29:15;;;;;;;;;10.33;10.00;;;;;21.47;51.60;102613.06;4997324;28;47846;-77
2021/10/11 09:31:48;;;;;;;;;9.33;9.33;;;;;21.43;51.40;102619.66;4993509;28;45453;-77
2021/10/11 09:34:14;;;;;;;;;7.67;7.67;;;;;21.37;51.52;102630.91;4985708;28;45453;-77
2021/10/11 09:36:40;;;;;;;;;10.67;9.00;;;;;21.27;51.70;102623.44;4987085;28;46290;-74
2021/10/11 09:39:06;;;;;;;;;10.00;7.33;;;;;21.27;53.42;102618.06;4988524;28;45565;-77
2021/10/11 09:41:31;;;;;;;;;7.67;7.67;;;;;21.17;52.90;102592.66;5010945;28;49399;-75
2021/10/11 09:43:57;;;;;;;;;9.67;7.00;;;;;21.48;52.77;102624.72;5013495;28;45425;-75
2021/10/11 09:46:24;;;;;;;;;8.33;8.33;;;;;21.57;52.55;102614.13;5006176;28;74009;-75
2021/10/11 09:48:56;;;;;;;;;11.67;7.00;;;;;21.66;53.04;102609.06;5013154;28;45558;-90
2021/10/11 09:51:22;;;;;;;;;11.67;7.33;;;;;21.72;53.06;102600.53;5011591;28;45513;-75
2021/10/11 09:53:51;;;;;;;;;10.33;8.33;;;;;21.82;52.46;102600.69;5008727;28;45643;-82
2021/10/11 09:56:16;;;;;;;;;8.33;7.33;;;;;21.87;53.03;102603.97;5012214;28;45586;-78
2021/10/11 09:58:42;;;;;;;;;6.00;5.67;;;;;21.93;52.95;102598.09;5010704;28;45227;-78
2021/10/11 10:01:07;;;;;;;;;8.00;8.00;;;;;21.99;52.72;102596.78;5004923;28;63029;-80
2021/10/11 10:03:34;;;;;;;;;8.67;8.33;;;;;22.23;52.51;102609.44;5008652;28;45849;-73
2021/10/11 10:05:59;;;;;;;;;8.00;8.00;;;;;22.24;52.59;102605.78;4999621;28;47516;-74
2021/10/11 10:08:28;;;;;;;;;14.67;11.00;;;;;22.30;52.79;102599.03;5011837;28;70214;-80
2021/10/11 10:10:54;;;;;;;;;7.33;5.67;;;;;22.37;52.38;102605.72;5010136;28;45428;-77
2021/10/11 10:13:20;;;;;;;;;9.00;6.67;;;;;22.40;52.09;102602.75;5004930;28;45326;-83
2021/10/11 10:15:46;;;;;;;;;9.67;8.33;;;;;22.39;52.30;102598.31;5005104;28;48790;-73
2021/10/11 10:18:13;;;;;;;;;10.00;8.33;;;;;22.40;52.91;102600.06;5007747;28;46955;-74
2021/10/11 10:20:53;;;;;;;;;6.33;6.33;;;;;22.40;51.98;102594.63;5022983;28;45580;-74
2021/10/11 10:23:28;;;;;;;;;10.00;8.33;;;;;22.45;52.42;102602.44;5020871;28;50817;-73
2021/10/11 10:25:57;;;;;;;;;13.00;8.00;;;;;22.41;52.17;102598.22;5010654;28;46087;-86
2021/10/11 10:28:24;;;;;;;;;7.33;7.33;;;;;22.28;51.97;102584.75;5011529;28;47264;-78
2021/10/11 10:31:00;;;;;;;;;7.67;6.00;;;;;22.37;52.26;102609.25;5017295;28;45773;-77
2021/10/11 10:33:32;;;;;;;;;8.67;7.00;;;;;22.32;50.48;102599.78;5011652;28;45683;-78
2021/10/11 10:35:57;;;;;;;;;9.33;9.33;;;;;22.23;51.21;102610.31;5011388;28;50261;-79
2021/10/11 10:38:24;;;;;;;;;7.33;5.67;;;;;22.15;50.92;102601.06;5008630;28;69887;-78
2021/10/11 10:40:49;;;;;;;;;6.33;5.67;;;;;22.07;51.12;102607.88;5010270;28;45418;-78
2021/10/11 10:43:16;;;;;;;;;5.33;5.00;;;;;21.95;51.67;102595.28;5008902;28;68603;-78
2021/10/11 10:45:42;;;;;;;;;7.00;7.00;;;;;21.91;51.63;102600.03;4989595;28;46098;-78
2021/10/11 10:48:24;;;;;;;;;8.33;7.67;;;;;21.92;51.37;102615.28;5007641;28;45405;-78
2021/10/11 10:50:51;;;;;;;;;8.00;6.33;;;;;21.86;51.63;102613.03;5010885;28;46874;-78
2021/10/11 10:53:17;;;;;;;;;10.67;9.67;;;;;21.83;51.02;102599.75;5003767;28;45555;-78
2021/10/11 10:55:42;;;;;;;;;5.33;5.00;;;;;21.81;51.15;102598.97;5012973;28;45762;-83
2021/10/11 10:58:10;;;;;;;;;5.33;5.33;;;;;21.84;50.44;102606.88;4990609;28;46190;-82
2021/10/11 11:00:36;;;;;;;;;5.67;4.33;;;;;21.76;50.20;102603.84;4996288;28;45548;-82
2021/10/11 11:03:01;;;;;;;;;4.33;4.33;;;;;21.69;49.52;102598.88;5010793;28;45572;-81
2021/10/11 11:05:28;;;;;;;;;4.00;4.00;;;;;21.59;49.04;102601.38;5010062;28;46118;-84
2021/10/11 11:07:54;;;;;;;;;3.00;3.00;;;;;21.50;48.40;102598.47;5018947;28;45467;-78
2021/10/11 11:10:24;;;;;;;;;4.33;4.33;;;;;21.50;49.25;102604.72;5008565;28;45815;-77
2021/10/11 11:12:53;;;;;;;;;4.33;4.33;;;;;21.38;49.41;102584.00;5009375;28;45379;-75
2021/10/11 11:15:51;;;;;;;;;5.00;4.33;;;;;21.58;49.30;102607.75;4990891;28;45942;-73
2021/10/11 11:18:19;;;;;;;;;4.33;4.33;;;;;21.60;49.80;102594.13;4970178;28;45533;-75
2021/10/11 11:20:45;;;;;;;;;6.33;5.00;;;;;21.69;49.48;102606.97;4960314;28;45489;-80
2021/10/11 11:23:12;;;;;;;;;5.33;4.00;;;;;21.71;49.72;102607.75;4975118;28;45569;-77
2021/10/11 11:25:42;;;;;;;;;7.33;4.00;;;;;21.69;49.58;102606.09;4972125;28;46376;-86
2021/10/11 11:28:08;;;;;;;;;5.33;4.33;;;;;21.56;49.51;102593.50;4957449;28;45539;-81
2021/10/11 11:30:34;;;;;;;;;4.33;4.33;;;;;21.39;49.85;102572.22;4980285;28;45627;-80
2021/10/11 11:33:04;;;;;;;;;6.67;5.00;;;;;21.61;50.27;102589.59;4942151;28;45608;-74
2021/10/11 11:35:36;;;;;;;;;4.33;4.33;;;;;21.74;50.71;102600.41;4961350;28;46108;-75
2021/10/11 11:38:07;;;;;;;;;5.67;4.67;;;;;21.80;50.87;102575.63;4971409;28;46834;-90
2021/10/11 11:40:34;;;;;;;;;5.00;4.00;;;;;21.98;50.25;102592.34;4963008;28;45450;-83
2021/10/11 11:42:59;;;;;;;;;1.00;1.00;;;;;22.04;50.25;102591.03;4976118;28;45628;-77
2021/10/11 11:45:35;;;;;;;;;5.33;4.33;;;;;22.16;50.32;102597.38;4953248;28;46332;-70
2021/10/11 11:48:11;;;;;;;;;6.00;5.00;;;;;22.16;50.12;102597.38;4980358;28;45478;-79
2021/10/11 11:50:36;;;;;;;;;7.00;7.00;;;;;22.28;50.15;102599.16;4972108;28;45478;-83
2021/10/11 11:53:04;;;;;;;;;7.00;5.00;;;;;22.36;50.60;102590.47;4959890;28;45471;-76
2021/10/11 11:55:30;;;;;;;;;7.00;4.00;;;;;22.45;49.98;102592.47;4995935;28;45583;-81
2021/10/11 11:57:57;;;;;;;;;4.33;4.33;;;;;22.53;49.83;102586.47;5007286;28;45427;-79
2021/10/11 12:00:22;;;;;;;;;6.00;5.67;;;;;22.58;50.40;102578.03;4994954;28;45590;-83
2021/10/11 12:02:47;;;;;;;;;6.67;5.67;;;;;22.63;49.82;102576.69;5015994;28;45591;-75
2021/10/11 12:05:13;;;;;;;;;6.67;5.67;;;;;22.62;49.99;102563.28;5014858;28;71552;-76
2021/10/11 12:07:39;;;;;;;;;5.33;5.00;;;;;22.64;49.77;102569.41;4992617;28;45523;-76
2021/10/11 12:10:06;;;;;;;;;3.67;3.00;;;;;22.56;47.28;102571.88;5007913;28;47510;-81
2021/10/11 12:12:32;;;;;;;;;5.00;4.00;;;;;22.47;47.64;102576.09;5013182;28;46338;-81
2021/10/11 12:14:58;;;;;;;;;4.67;4.67;;;;;22.37;48.26;102573.25;5010712;28;46329;-75
2021/10/11 12:17:32;;;;;;;;;4.67;4.33;;;;;22.38;48.46;102570.44;5011438;28;68903;-77
2021/10/11 12:19:59;;;;;;;;;7.00;4.33;;;;;22.39;48.90;102557.75;5014038;28;45702;-83
2021/10/11 12:22:30;;;;;;;;;5.00;3.67;;;;;22.58;49.02;102570.78;5013138;28;45728;-79
2021/10/11 12:24:57;;;;;;;;;5.33;5.33;;;;;22.65;48.93;102568.47;5014329;28;46270;-80
2021/10/11 12:27:23;;;;;;;;;3.67;3.67;;;;;22.75;49.46;102569.47;5010326;28;46228;-78
2021/10/11 12:29:48;;;;;;;;;7.67;5.00;;;;;22.83;49.30;102565.28;5012275;28;62737;-75
2021/10/11 12:32:14;;;;;;;;;3.00;3.00;;;;;22.92;50.28;102561.88;5012709;28;45424;-75
2021/10/11 12:34:45;;;;;;;;;7.33;3.33;;;;;22.98;49.32;102557.81;5013533;28;45911;-75
2021/10/11 12:37:14;;;;;;;;;6.00;4.33;;;;;23.02;49.55;102549.31;5011860;28;45849;-75
2021/10/11 12:39:41;;;;;;;;;5.00;3.33;;;;;23.00;49.70;102536.88;5012919;28;45570;-78
2021/10/11 12:42:08;;;;;;;;;5.67;4.00;;;;;23.10;49.49;102528.91;5009280;28;45538;-75
2021/10/11 12:44:35;;;;;;;;;5.00;3.67;;;;;23.35;49.57;102544.09;5013741;28;46935;-76
2021/10/11 12:47:00;;;;;;;;;2.33;2.00;;;;;23.46;49.08;102534.22;5017777;28;45459;-79
2021/10/11 12:49:36;;;;;;;;;4.33;4.33;;;;;23.59;49.36;102537.66;4992116;28;64328;-77
2021/10/11 12:52:03;;;;;;;;;3.67;3.33;;;;;23.76;49.27;102538.13;5014761;28;45549;-79
2021/10/11 12:54:30;;;;;;;;;5.67;5.67;;;;;23.86;48.77;102541.78;5006679;28;46226;-76
2021/10/11 12:56:56;;;;;;;;;3.67;3.67;;;;;23.93;49.06;102542.13;5017705;28;45521;-75
2021/10/11 12:59:22;;;;;;;;;5.00;4.00;;;;;23.95;48.77;102554.56;5013914;28;45345;-72
2021/10/11 13:01:50;;;;;;;;;3.67;3.00;;;;;23.96;48.28;102550.03;5011773;28;45334;-75
2021/10/11 13:04:16;;;;;;;;;5.00;3.67;;;;;23.79;48.98;102519.72;5003214;28;45929;-75
2021/10/11 13:06:44;;;;;;;;;5.67;5.00;;;;;23.86;48.94;102528.22;4992474;28;45496;-78
2021/10/11 13:09:10;;;;;;;;;5.67;2.00;;;;;23.72;48.84;102517.66;5020809;28;45588;-75
2021/10/11 13:11:35;;;;;;;;;4.00;3.67;;;;;23.84;48.77;102532.06;5007956;28;45567;-75
2021/10/11 13:14:00;;;;;;;;;3.67;3.33;;;;;23.80;49.32;102535.00;4965507;28;46187;-74
2021/10/11 13:16:26;;;;;;;;;2.67;2.67;;;;;23.74;48.81;102505.72;5004267;28;45557;-86
2021/10/11 13:18:51;;;;;;;;;4.33;4.33;;;;;23.99;48.79;102536.19;5014456;28;55465;-82
2021/10/11 13:21:17;;;;;;;;;6.00;5.00;;;;;23.98;49.34;102523.63;5007050;28;45598;-81
2021/10/11 13:23:43;;;;;;;;;4.67;4.00;;;;;24.13;48.63;102526.06;4992398;28;46188;-77
2021/10/11 13:26:11;;;;;;;;;4.67;3.00;;;;;24.24;48.88;102523.34;4991405;28;45837;-84
2021/10/11 13:28:38;;;;;;;;;4.00;2.67;;;;;24.30;48.68;102511.06;4992516;28;46237;-82
2021/10/11 14:27:42;;;;;;;;;3.00;3.00;;;;;23.94;48.17;102484.19;4956700;28;45969;-75
2021/10/11 16:00:02;;;;;;;;;7.33;5.33;;;;;23.53;45.75;102484.81;4979578;28;45524;-72
2021/10/11 16:04:56;;;;;;;;;5.67;5.67;;;;;23.29;46.27;102480.38;4977461;28;45979;-77
2021/10/11 16:07:21;;;;;;;;;11.00;6.33;;;;;23.20;46.78;102483.84;4960282;28;46478;-77
2021/10/11 16:09:47;;;;;;;;;5.00;4.33;;;;;23.08;47.60;102482.97;4978242;28;64514;-75
2021/10/11 16:12:12;;;;;;;;;5.33;5.00;;;;;22.99;47.89;102486.44;4974378;28;70493;-75
2021/10/11 16:14:37;;;;;;;;;11.00;7.00;;;;;22.88;48.62;102493.56;4976758;28;75453;-74
2021/10/11 16:17:03;;;;;;;;;7.67;5.33;;;;;22.63;48.68;102472.97;4987551;28;69819;-74
2021/10/11 16:19:28;;;;;;;;;12.67;8.67;;;;;22.68;48.67;102500.53;4987783;28;45481;-79
2021/10/11 16:21:54;;;;;;;;;10.00;7.00;;;;;22.61;49.35;102502.88;4996428;28;60866;-73
2021/10/11 16:24:19;;;;;;;;;7.67;5.00;;;;;22.56;49.57;102501.53;4976833;28;45436;-77
2021/10/11 16:26:47;;;;;;;;;10.67;7.33;;;;;22.57;50.44;102503.25;4987898;28;70090;-71
2021/10/11 16:29:13;;;;;;;;;13.33;9.67;;;;;22.69;49.93;102505.00;4969917;28;45564;-71
2021/10/11 16:31:38;;;;;;;;;15.33;7.00;;;;;22.70;50.33;102513.97;4998538;28;45535;-71
2021/10/11 16:34:04;;;;;;;;;10.33;7.67;;;;;22.65;50.02;102511.63;4975217;28;45475;-71
2021/10/11 16:36:29;;;;;;;;;12.33;9.00;;;;;22.61;50.48;102504.72;4965516;28;45565;-70
2021/10/11 16:38:55;;;;;;;;;9.00;7.00;;;;;22.66;50.25;102515.19;4990955;28;45775;-71
2021/10/11 16:41:20;;;;;;;;;9.67;7.00;;;;;22.69;50.08;102510.41;4976973;28;45616;-70
2021/10/11 16:43:45;;;;;;;;;7.67;7.67;;;;;22.74;49.79;102512.75;4996967;28;45811;-69
2021/10/11 16:46:11;;;;;;;;;14.33;7.33;;;;;22.75;49.99;102501.81;4991148;28;45530;-69
2021/10/11 16:48:36;;;;;;;;;11.33;8.00;;;;;22.66;50.30;102493.53;4976981;28;45568;-69
2021/10/11 16:51:03;;;;;;;;;9.67;6.00;;;;;22.79;50.09;102515.94;4984398;28;45533;-69
2021/10/11 16:53:34;;;;;;;;;9.33;6.00;;;;;22.79;49.81;102518.66;4977393;28;46601;-70
2021/10/11 16:55:59;;;;;;;;;11.00;7.67;;;;;22.78;49.61;102519.66;4979022;28;46710;-71
2021/10/11 16:58:24;;;;;;;;;7.67;6.33;;;;;22.75;49.94;102520.75;4991068;28;68132;-71
2021/10/11 17:00:50;;;;;;;;;8.00;7.33;;;;;22.72;49.67;102509.31;4974352;28;63645;-70
2021/10/11 17:03:15;;;;;;;;;9.50;7.00;;;;;22.65;49.59;102506.22;4991248;28;69579;-68
2021/10/11 17:05:41;;;;;;;;;7.33;4.67;;;;;22.66;49.84;102509.78;4990778;28;72981;-67
2021/10/11 17:08:06;;;;;;;;;9.00;7.00;;;;;22.64;50.20;102512.59;4998369;28;45516;-68
2021/10/11 17:10:31;;;;;;;;;11.00;9.00;;;;;22.63;50.09;102506.34;4994278;28;45437;-67
2021/10/11 17:12:57;;;;;;;;;8.00;8.00;;;;;22.63;49.21;102517.16;4988816;28;70179;-73
2021/10/11 17:15:22;;;;;;;;;10.67;9.00;;;;;22.60;48.82;102511.97;4976892;28;56924;-73
2021/10/11 17:17:51;;;;;;;;;11.00;8.00;;;;;22.58;48.61;102505.84;4981944;28;45405;-74
2021/10/11 17:20:17;;;;;;;;;11.00;8.33;;;;;22.53;48.84;102508.00;4971908;28;45729;-76
2021/10/11 17:22:43;;;;;;;;;11.33;7.67;;;;;22.49;48.78;102515.47;4973706;28;47584;-74
2021/10/11 17:25:11;;;;;;;;;10.67;9.33;;;;;22.35;48.79;102499.44;5001489;28;45690;-74
2021/10/11 17:27:36;;;;;;;;;8.00;8.00;;;;;22.27;48.69;102496.50;4973132;28;45440;-75
2021/10/11 17:30:02;;;;;;;;;13.33;9.33;;;;;22.25;48.55;102507.41;4999087;28;45493;-74
2021/10/11 17:32:27;;;;;;;;;13.00;8.00;;;;;22.16;48.74;102516.22;4978476;28;47024;-75
2021/10/11 17:34:53;;;;;;;;;9.33;9.00;;;;;22.09;48.69;102522.13;5008441;28;45412;-75
2021/10/11 17:37:18;;;;;;;;;8.00;8.00;;;;;22.02;49.03;102517.28;4993844;28;45442;-75
2021/10/11 17:39:44;;;;;;;;;7.00;7.00;;;;;21.95;48.96;102509.63;5015316;28;45997;-74
2021/10/11 17:42:09;;;;;;;;;9.00;7.33;;;;;21.88;48.75;102515.59;4987328;28;46347;-74
2021/10/11 17:44:36;;;;;;;;;6.67;5.33;;;;;21.84;49.01;102520.38;4986236;28;71649;-74
2021/10/11 17:47:02;;;;;;;;;9.00;7.00;;;;;21.79;48.90;102528.81;4989055;28;45445;-74
2021/10/11 17:49:27;;;;;;;;;9.00;9.00;;;;;21.68;49.23;102512.50;4996229;28;45737;-74
2021/10/11 17:51:53;;;;;;;;;7.00;7.00;;;;;21.61;49.28;102506.69;4968262;28;73281;-74
2021/10/11 17:54:19;;;;;;;;;9.33;7.33;;;;;21.64;49.52;102524.50;4984003;28;45501;-74
2021/10/11 17:56:44;;;;;;;;;9.33;7.33;;;;;21.61;49.32;102522.06;4985248;28;57966;-74
2021/10/11 17:59:10;;;;;;;;;9.00;6.67;;;;;21.53;49.34;102519.88;4987001;28;63229;-75
2021/10/11 18:01:35;;;;;;;;;10.33;8.67;;;;;21.53;49.54;102525.28;4967493;28;73841;-76
2021/10/11 18:04:01;;;;;;;;;7.33;6.00;;;;;21.44;50.04;102521.44;4984033;28;45588;-76
2021/10/11 18:06:26;;;;;;;;;7.00;6.00;;;;;21.39;50.00;102518.19;4975842;28;45474;-77
2021/10/11 18:08:52;;;;;;;;;8.00;6.00;;;;;21.38;50.18;102522.72;4988515;28;45422;-74
2021/10/11 18:11:18;;;;;;;;;9.67;6.67;;;;;21.39;50.01;102532.59;4969914;28;45434;-75
2021/10/11 18:13:43;;;;;;;;;7.00;7.00;;;;;21.37;50.12;102536.38;4984246;28;73013;-75
2021/10/11 18:16:12;;;;;;;;;8.33;7.00;;;;;21.27;50.04;102528.94;4954929;28;67205;-75
2021/10/11 18:18:38;;;;;;;;;11.00;8.67;;;;;21.31;50.17;102540.38;4977275;28;45561;-75
2021/10/11 18:21:04;;;;;;;;;11.33;9.33;;;;;21.29;50.02;102547.72;4977118;28;45608;-77
2021/10/11 18:23:29;;;;;;;;;11.33;9.33;;;;;21.28;49.90;102548.69;4984802;28;66723;-75
2021/10/11 18:25:58;;;;;;;;;9.67;9.33;;;;;21.26;49.89;102546.09;5000236;28;45485;-75
2021/10/11 18:28:23;;;;;;;;;10.00;8.33;;;;;21.21;50.08;102545.53;4992495;28;45516;-75
2021/10/11 18:30:49;;;;;;;;;9.00;7.33;;;;;21.22;50.55;102547.31;4972650;28;70069;-75
2021/10/11 18:33:14;;;;;;;;;8.67;8.33;;;;;21.19;50.44;102544.81;4987980;28;70595;-75
2021/10/11 18:35:39;;;;;;;;;10.00;9.00;;;;;21.12;50.58;102549.78;5001251;28;58645;-76
2021/10/11 18:38:05;;;;;;;;;10.67;8.00;;;;;21.15;50.18;102549.56;4986025;28;70011;-76
2021/10/11 18:40:30;;;;;;;;;9.67;9.67;;;;;21.10;50.50;102542.75;4987637;28;45486;-75
2021/10/11 18:42:55;;;;;;;;;10.00;10.00;;;;;21.11;50.39;102547.19;4984320;28;70172;-74
2021/10/11 18:45:21;;;;;;;;;10.33;10.33;;;;;21.05;50.26;102541.25;4979338;28;59107;-74
2021/10/11 18:47:46;;;;;;;;;9.00;8.67;;;;;21.08;50.83;102533.91;4973251;28;70446;-75
2021/10/11 18:50:12;;;;;;;;;10.67;10.33;;;;;21.04;50.53;102536.81;4991618;28;46084;-74
2021/10/11 18:52:37;;;;;;;;;9.33;9.33;;;;;21.03;50.99;102545.91;4990730;28;45416;-75
2021/10/11 18:55:04;;;;;;;;;13.00;9.67;;;;;21.03;50.43;102539.63;4985016;28;45517;-74
2021/10/11 18:57:30;;;;;;;;;11.33;8.33;;;;;20.98;50.62;102536.38;4983048;28;45528;-74
2021/10/11 18:59:55;;;;;;;;;7.00;7.00;;;;;20.99;50.81;102548.91;4982108;28;46152;-74
2021/10/11 19:02:20;;;;;;;;;7.00;7.00;;;;;20.96;51.03;102550.00;4982420;28;45572;-75
2021/10/11 19:04:46;;;;;;;;;10.33;10.33;;;;;20.95;50.61;102550.09;4987792;28;68594;-75
2021/10/11 19:07:11;;;;;;;;;13.33;10.00;;;;;20.92;51.01;102546.66;4986039;28;63285;-75
2021/10/11 19:09:37;;;;;;;;;12.33;10.33;;;;;20.92;51.33;102545.78;4982793;28;73231;-74
2021/10/11 19:12:02;;;;;;;;;8.33;8.33;;;;;20.87;50.65;102540.72;4984159;28;71954;-74
2021/10/11 19:14:28;;;;;;;;;10.33;8.67;;;;;20.88;50.96;102553.22;4970626;28;45540;-74
2021/10/11 19:16:54;;;;;;;;;7.33;7.33;;;;;20.83;51.27;102544.56;4988367;28;45631;-74
2021/10/11 19:19:19;;;;;;;;;11.00;10.00;;;;;20.85;50.76;102555.25;4979528;28;46920;-74
2021/10/11 19:21:45;;;;;;;;;9.67;7.67;;;;;20.84;51.08;102551.66;4965757;28;70653;-74
2021/10/11 19:24:10;;;;;;;;;9.33;9.33;;;;;20.81;50.85;102549.22;4989790;28;45651;-74
2021/10/11 19:26:36;;;;;;;;;12.00;9.67;;;;;20.83;51.36;102540.97;4990362;28;45366;-74
2021/10/11 19:29:03;;;;;;;;;12.67;10.00;;;;;20.82;50.94;102548.22;4972491;28;46305;-74
2021/10/11 19:31:28;;;;;;;;;10.33;9.67;;;;;20.76;51.33;102552.22;4986162;28;45504;-74
2021/10/11 19:33:54;;;;;;;;;10.33;10.33;;;;;20.79;51.01;102553.81;4972724;28;45996;-74
2021/10/11 19:36:19;;;;;;;;;14.00;11.00;;;;;20.78;51.47;102557.50;4979185;28;45350;-74
2021/10/11 19:38:44;;;;;;;;;13.00;10.67;;;;;20.77;51.45;102569.28;4981888;28;72723;-74
2021/10/11 19:41:10;;;;;;;;;11.67;10.33;;;;;20.70;51.56;102552.63;4981104;28;67895;-74
2021/10/11 19:43:36;;;;;;;;;11.67;10.33;;;;;20.71;51.04;102557.06;4983383;28;45537;-74
2021/10/11 19:46:01;;;;;;;;;11.00;8.67;;;;;20.73;51.38;102557.84;4982932;28;45480;-74
2021/10/11 19:48:27;;;;;;;;;10.33;10.33;;;;;20.70;51.73;102551.75;4983080;28;75374;-75
2021/10/11 19:50:52;;;;;;;;;10.67;9.33;;;;;20.71;51.26;102548.09;4985109;28;50873;-74
2021/10/11 19:53:18;;;;;;;;;10.00;10.00;;;;;20.69;51.43;102555.44;4984115;28;45577;-74
2021/10/11 19:55:43;;;;;;;;;8.67;8.33;;;;;20.63;51.92;102549.50;4985862;28;45441;-77
2021/10/11 19:58:10;;;;;;;;;12.00;11.33;;;;;20.63;51.56;102548.63;4969016;28;64954;-76
2021/10/11 20:00:35;;;;;;;;;14.00;12.67;;;;;20.65;51.57;102550.25;4984843;28;45355;-74
2021/10/11 20:03:00;;;;;;;;;12.00;10.33;;;;;20.63;51.71;102546.78;4988861;28;48040;-76
2021/10/11 20:05:26;;;;;;;;;11.33;10.67;;;;;20.54;52.48;102534.81;4972549;28;69046;-74
2021/10/11 20:07:51;;;;;;;;;10.67;10.67;;;;;20.62;52.24;102545.06;4971887;28;45607;-75
2021/10/11 20:10:17;;;;;;;;;11.00;9.67;;;;;20.61;51.72;102542.47;4984151;28;45517;-70
2021/10/11 20:12:42;;;;;;;;;10.67;10.67;;;;;20.45;52.14;102524.66;4984804;28;45349;-71
2021/10/11 20:15:09;;;;;;;;;9.67;8.67;;;;;20.59;52.20;102539.88;4973882;28;45919;-70
2021/10/11 20:17:34;;;;;;;;;10.00;9.00;;;;;20.59;51.60;102541.69;4990516;28;45457;-70
2021/10/11 20:20:00;;;;;;;;;11.33;10.00;;;;;20.58;52.01;102535.47;4966486;28;45612;-70
2021/10/11 20:22:26;;;;;;;;;11.33;11.33;;;;;20.58;52.54;102540.84;4989520;28;45826;-70
2021/10/11 20:24:51;;;;;;;;;9.33;9.00;;;;;20.58;52.17;102543.56;4983936;28;45495;-70
2021/10/11 20:27:16;;;;;;;;;17.00;11.67;;;;;20.56;52.15;102545.47;4975271;28;46032;-70
2021/10/11 20:29:42;;;;;;;;;9.33;9.33;;;;;20.53;52.44;102537.59;4994656;28;67051;-70
2021/10/11 20:32:07;;;;;;;;;11.00;7.33;;;;;20.54;52.47;102540.22;4970400;28;45434;-70
2021/10/11 20:34:33;;;;;;;;;11.00;9.67;;;;;20.51;52.69;102543.09;4994436;28;45387;-70
2021/10/11 20:36:58;;;;;;;;;7.67;7.33;;;;;20.52;52.02;102541.28;4971864;28;58048;-70
2021/10/11 20:39:23;;;;;;;;;9.67;9.67;;;;;20.51;52.61;102535.00;4980716;28;45416;-70
2021/10/11 20:41:49;;;;;;;;;11.33;11.33;;;;;20.50;52.13;102540.50;4986843;28;45565;-70
2021/10/11 20:44:14;;;;;;;;;9.67;8.33;;;;;20.49;52.22;102542.34;4984510;28;68325;-70
2021/10/11 20:46:39;;;;;;;;;11.00;10.67;;;;;20.49;52.24;102541.47;4987668;28;75593;-70
2021/10/11 20:49:05;;;;;;;;;10.00;9.00;;;;;20.42;52.58;102524.84;4990871;28;47451;-70
2021/10/11 20:51:30;;;;;;;;;8.00;8.00;;;;;20.46;52.10;102526.38;4993953;28;62812;-70
2021/10/11 20:53:56;;;;;;;;;8.67;8.67;;;;;20.46;52.44;102526.38;4974367;28;65684;-71
2021/10/11 20:56:21;;;;;;;;;9.33;7.00;;;;;20.43;52.31;102526.56;4975202;28;74523;-70
2021/10/11 20:58:46;;;;;;;;;10.33;10.00;;;;;20.44;52.24;102525.59;4968500;28;70481;-71
2021/10/11 21:01:12;;;;;;;;;9.33;9.33;;;;;20.40;52.08;102524.94;4970454;28;60373;-71
2021/10/11 21:03:37;;;;;;;;;8.00;8.00;;;;;20.37;52.42;102519.78;4958351;28;45553;-71